Time;durP1;ratioP1;P1;durP2;ratioP2;P2;SDS_P1;SDS_P2;PMS_P1;PMS_P2;Temp;Humidity;BMP_temperature;BMP_pressure;BME280_temperature;BME280_humidity;BME280_pressure;Samples;Min_cycle;Max_cycle;Signal;HPM_P1;HPM_P2
2022/06/30 00:01:28;;;;;;;12.65;7.32;;;;;;;-145.69;100.00;70839.31;5052270;28;20689;-79
2022/06/30 00:03:55;;;;;;;13.77;6.47;;;;;;;-145.69;100.00;70849.25;5052596;28;20562;-80
2022/06/30 00:06:21;;;;;;;10.50;6.10;;;;;;;-145.69;100.00;70867.16;5052421;28;20210;-80
2022/06/30 00:08:48;;;;;;;10.48;5.90;;;;;;;-145.69;100.00;70875.13;5052346;28;20558;-80
2022/06/30 00:11:14;;;;;;;12.63;7.95;;;;;;;-145.69;100.00;70873.13;5052335;28;20435;-80
2022/06/30 00:13:43;;;;;;;11.35;7.78;;;;;;;-145.69;100.00;70865.16;5052524;28;20195;-79
2022/06/30 00:16:10;;;;;;;13.80;7.53;;;;;;;-145.69;100.00;70855.22;5054748;28;20223;-80
2022/06/30 00:18:37;;;;;;;11.93;7.13;;;;;;;-145.69;100.00;70857.22;5052382;28;20204;-80
2022/06/30 00:21:04;;;;;;;11.30;7.03;;;;;;;-145.69;100.00;70871.13;5052168;28;20230;-79
2022/06/30 00:23:31;;;;;;;12.55;7.82;;;;;;;-145.69;100.00;70875.13;5052560;28;20204;-80
2022/06/30 00:25:58;;;;;;;10.57;7.30;;;;;;;-145.69;100.00;70875.13;5052519;28;20204;-79
2022/06/30 00:28:25;;;;;;;13.70;8.10;;;;;;;-145.69;100.00;70877.09;5052442;28;20196;-79
2022/06/30 00:30:53;;;;;;;14.15;8.35;;;;;;;-145.69;100.00;70863.19;5052257;28;20226;-78
2022/06/30 00:33:20;;;;;;;10.85;7.50;;;;;;;-145.69;100.00;70871.13;5054554;28;20211;-80
2022/06/30 00:35:47;;;;;;;13.20;8.00;;;;;;;-145.69;100.00;70861.19;5055880;28;20668;-79
2022/06/30 00:38:14;;;;;;;10.50;7.85;;;;;;;-145.69;100.00;70865.16;5056116;28;20203;-79
2022/06/30 00:40:43;;;;;;;12.10;7.28;;;;;;;-145.69;100.00;70867.16;5055909;28;20561;-79
2022/06/30 00:43:09;;;;;;;13.00;7.47;;;;;;;-145.69;100.00;70865.16;5055902;28;20208;-78
2022/06/30 00:45:41;;;;;;;19.00;7.70;;;;;;;-145.69;100.00;70861.19;5055875;28;20199;-79
2022/06/30 00:48:09;;;;;;;14.57;7.35;;;;;;;-145.69;100.00;70877.09;5055628;28;20297;-79
2022/06/30 00:50:36;;;;;;;15.52;7.72;;;;;;;-145.69;100.00;70887.06;5055591;28;20207;-80
2022/06/30 00:53:04;;;;;;;10.88;7.97;;;;;;;-145.69;100.00;70881.09;5055762;28;20203;-79
2022/06/30 00:55:31;;;;;;;10.70;7.32;;;;;;;-145.69;100.00;70889.03;5055672;28;20199;-79
2022/06/30 00:58:01;;;;;;;11.27;8.40;;;;;;;-145.69;100.00;70897.00;5055656;28;20203;-79
2022/06/30 01:00:29;;;;;;;12.98;8.07;;;;;;;-145.69;100.00;70889.03;5055462;28;20195;-79
2022/06/30 01:02:56;;;;;;;10.60;8.10;;;;;;;-145.69;100.00;70895.00;5055454;28;20206;-79
2022/06/30 01:05:25;;;;;;;15.85;8.68;;;;;;;-145.69;100.00;70899.00;5055525;28;20200;-79
2022/06/30 01:07:53;;;;;;;16.88;9.15;;;;;;;-145.69;100.00;70906.94;5055493;28;20227;-78
2022/06/30 01:13:04;;;;;;;13.48;8.40;;;;;;;-145.69;100.00;70916.91;5055293;28;20210;-78
2022/06/30 01:15:31;;;;;;;11.80;7.85;;;;;;;-145.69;100.00;70912.91;5054980;28;20203;-79
2022/06/30 01:17:57;;;;;;;14.38;8.10;;;;;;;-145.69;100.00;70914.91;5055323;28;20200;-79
2022/06/30 01:20:29;;;;;;;12.43;8.20;;;;;;;-145.69;100.00;70920.88;5055066;28;20207;-78
2022/06/30 01:22:58;;;;;;;15.25;8.98;;;;;;;-145.69;100.00;70928.84;5054592;28;20841;-78
2022/06/30 01:25:26;;;;;;;12.07;8.95;;;;;;;-145.69;100.00;70932.81;5054983;28;20199;-79
2022/06/30 01:27:52;;;;;;;15.00;8.05;;;;;;;-145.69;100.00;70938.78;5054815;28;20200;-79
2022/06/30 01:30:20;;;;;;;17.52;8.27;;;;;;;-145.69;100.00;70936.78;5055110;28;20685;-78
2022/06/30 01:32:46;;;;;;;10.90;8.10;;;;;;;-145.69;100.00;70930.81;5055258;28;20199;-78
2022/06/30 01:35:13;;;;;;;14.65;8.20;;;;;;;-145.69;100.00;70930.81;5054938;28;20207;-78
2022/06/30 01:37:52;;;;;;;12.02;8.25;;;;;;;-145.69;100.00;70938.78;5054990;28;20203;-78
2022/06/30 01:40:21;;;;;;;12.55;7.45;;;;;;;-145.69;100.00;70936.78;5054681;28;20380;-79
2022/06/30 01:42:47;;;;;;;14.95;8.50;;;;;;;-145.69;100.00;70936.78;5054714;28;20690;-79
2022/06/30 01:45:15;;;;;;;17.35;8.05;;;;;;;-145.69;100.00;70946.75;5062432;28;20207;-79
2022/06/30 01:47:41;;;;;;;13.40;8.15;;;;;;;-145.69;100.00;70948.72;5074643;28;20230;-79
2022/06/30 01:50:11;;;;;;;12.38;8.50;;;;;;;-145.69;100.00;70950.72;5074510;28;20676;-79
2022/06/30 01:52:38;;;;;;;11.68;8.10;;;;;;;-145.69;100.00;70964.66;5074444;28;20210;-79
2022/06/30 01:55:06;;;;;;;10.85;8.20;;;;;;;-145.69;100.00;70964.66;5074455;28;20210;-79
2022/06/30 01:57:34;;;;;;;15.00;8.77;;;;;;;-145.69;100.00;70952.72;5074660;28;20281;-78
2022/06/30 02:00:01;;;;;;;14.43;9.20;;;;;;;-145.69;100.00;70948.72;5074557;28;20207;-79
2022/06/30 02:02:27;;;;;;;19.50;11.02;;;;;;;-145.69;100.00;70956.69;5061562;28;20701;-79
2022/06/30 02:04:54;;;;;;;13.27;9.05;;;;;;;-145.69;100.00;70950.72;5054254;28;20219;-79
2022/06/30 02:07:21;;;;;;;16.90;9.48;;;;;;;-145.69;100.00;70960.66;5063327;28;20203;-79
2022/06/30 02:09:51;;;;;;;17.00;9.45;;;;;;;-145.69;100.00;70960.66;5074390;28;20199;-79
2022/06/30 02:15:04;;;;;;;15.88;8.55;;;;;;;-145.69;100.00;70970.63;5074117;28;20250;-79
2022/06/30 02:17:31;;;;;;;14.07;9.57;;;;;;;-145.69;100.00;70966.63;5073973;28;20203;-78
2022/06/30 02:19:57;;;;;;;16.38;9.20;;;;;;;-145.69;100.00;70976.59;5073896;28;20210;-79
2022/06/30 02:22:24;;;;;;;13.45;8.98;;;;;;;-145.69;100.00;70990.50;5074218;28;20227;-78
2022/06/30 02:24:50;;;;;;;15.05;9.27;;;;;;;-145.69;100.00;70992.50;5073925;28;20657;-78
2022/06/30 02:27:20;;;;;;;17.65;9.82;;;;;;;-145.69;100.00;70992.50;5073757;28;20201;-79
2022/06/30 02:29:46;;;;;;;17.98;9.20;;;;;;;-145.69;100.00;71000.47;5073643;28;20718;-79
2022/06/30 02:32:14;;;;;;;14.80;9.80;;;;;;;-145.69;100.00;70990.50;5073649;28;20203;-80
2022/06/30 02:34:42;;;;;;;16.00;10.18;;;;;;;-145.69;100.00;70984.53;5073993;28;20569;-80
2022/06/30 02:37:09;;;;;;;16.65;9.80;;;;;;;-145.69;100.00;70990.50;5073718;28;20646;-79
2022/06/30 02:39:36;;;;;;;15.88;9.90;;;;;;;-145.69;100.00;70992.50;5073691;28;20210;-80
2022/06/30 02:42:02;;;;;;;17.73;9.02;;;;;;;-145.69;100.00;71000.47;5073464;28;20226;-79
2022/06/30 02:44:29;;;;;;;17.33;9.23;;;;;;;-145.69;100.00;71008.41;5073543;28;20225;-79
2022/06/30 02:46:56;;;;;;;18.33;9.25;;;;;;;-145.69;100.00;71004.44;5073359;28;20564;-79
2022/06/30 02:49:23;;;;;;;16.95;10.15;;;;;;;-145.69;100.00;70996.47;5073286;28;20711;-80
2022/06/30 02:51:51;;;;;;;20.52;10.50;;;;;;;-145.69;100.00;70992.50;5073657;28;20210;-79
2022/06/30 02:54:17;;;;;;;15.52;9.65;;;;;;;-145.69;100.00;70982.56;5073463;28;20210;-79
2022/06/30 02:56:44;;;;;;;16.42;9.95;;;;;;;-145.69;100.00;70990.50;5073200;28;20198;-79
2022/06/30 02:59:11;;;;;;;14.82;10.02;;;;;;;-145.69;100.00;70988.53;5073289;28;20203;-78
2022/06/30 03:01:37;;;;;;;20.45;10.93;;;;;;;-145.69;100.00;70992.50;5073319;28;20230;-78
2022/06/30 03:04:04;;;;;;;17.45;9.75;;;;;;;-145.69;100.00;71000.47;5073454;28;20199;-79
2022/06/30 03:06:33;;;;;;;18.35;9.50;;;;;;;-145.69;100.00;70996.47;5073415;28;20202;-79
2022/06/30 03:09:01;;;;;;;17.40;9.43;;;;;;;-145.69;100.00;70994.50;5073350;28;20203;-78
2022/06/30 03:11:28;;;;;;;13.18;9.48;;;;;;;-145.69;100.00;71008.41;5073557;28;20206;-79
2022/06/30 03:13:54;;;;;;;16.75;9.57;;;;;;;-145.69;100.00;71004.44;5073052;28;20207;-79
2022/06/30 03:16:21;;;;;;;19.60;9.95;;;;;;;-145.69;100.00;70998.47;5073410;28;20202;-79
2022/06/30 03:18:48;;;;;;;15.57;10.50;;;;;;;-145.69;100.00;70992.50;5073145;28;20203;-78
2022/06/30 03:21:15;;;;;;;15.52;9.48;;;;;;;-145.69;100.00;70994.50;5073160;28;20202;-78
2022/06/30 03:23:42;;;;;;;17.77;10.13;;;;;;;-145.69;100.00;70992.50;5073052;28;20199;-79
2022/06/30 03:26:09;;;;;;;23.17;10.10;;;;;;;-145.69;100.00;70996.47;5072890;28;20211;-79
2022/06/30 03:28:35;;;;;;;15.35;8.75;;;;;;;-145.69;100.00;71004.44;5072787;28;20206;-79
2022/06/30 03:31:02;;;;;;;13.75;9.73;;;;;;;-145.69;100.00;71006.44;5073034;28;20207;-79
2022/06/30 03:33:28;;;;;;;13.70;9.35;;;;;;;-145.69;100.00;71006.44;5072865;28;20227;-78
2022/06/30 03:35:55;;;;;;;11.73;8.77;;;;;;;-145.69;100.00;71006.44;5072943;28;20199;-78
2022/06/30 03:38:22;;;;;;;16.88;9.13;;;;;;;-145.69;100.00;71004.44;5072800;28;20645;-77
2022/06/30 03:40:50;;;;;;;19.85;11.00;;;;;;;-145.69;100.00;70992.50;5072746;28;20241;-78
2022/06/30 03:43:18;;;;;;;16.83;10.48;;;;;;;-145.69;100.00;70992.50;5072560;28;20693;-78
2022/06/30 03:45:45;;;;;;;18.93;11.80;;;;;;;-145.69;100.00;70990.50;5071907;28;20445;-79
2022/06/30 03:48:11;;;;;;;20.17;10.02;;;;;;;-145.69;100.00;70976.59;5072597;28;20480;-78
2022/06/30 03:50:38;;;;;;;14.68;9.50;;;;;;;-145.69;100.00;70968.63;5072747;28;20202;-79
2022/06/30 03:53:04;;;;;;;15.40;9.60;;;;;;;-145.69;100.00;70972.59;5072705;28;20203;-79
2022/06/30 03:55:33;;;;;;;20.67;10.02;;;;;;;-145.69;100.00;70970.63;5072597;28;20206;-79
2022/06/30 03:58:01;;;;;;;16.02;8.98;;;;;;;-145.69;100.00;70964.66;5072579;28;20671;-78
2022/06/30 04:00:27;;;;;;;13.40;9.05;;;;;;;-145.69;100.00;70968.63;5072732;28;20205;-78
2022/06/30 04:02:54;;;;;;;13.23;9.18;;;;;;;-145.69;100.00;70960.66;5072663;28;20234;-78
2022/06/30 04:05:20;;;;;;;17.25;9.23;;;;;;;-145.69;100.00;70972.59;5072469;28;20709;-77
2022/06/30 04:07:48;;;;;;;14.00;8.68;;;;;;;-145.69;100.00;70964.66;5072385;28;20203;-78
2022/06/30 04:10:15;;;;;;;17.13;8.70;;;;;;;-145.69;100.00;70962.66;5057797;28;20230;-78
2022/06/30 04:12:42;;;;;;;12.95;7.88;;;;;;;-145.69;100.00;70966.63;5056586;28;20212;-79
2022/06/30 04:15:11;;;;;;;11.73;8.15;;;;;;;-145.69;100.00;70972.59;5056468;28;20199;-77
2022/06/30 04:17:38;;;;;;;14.90;7.65;;;;;;;-145.69;100.00;70968.63;5056468;28;20218;-79
2022/06/30 04:20:15;;;;;;;16.50;9.02;;;;;;;-145.69;100.00;70966.63;5056109;28;20444;-78
2022/06/30 04:22:42;;;;;;;16.83;8.32;;;;;;;-145.69;100.00;70968.63;5056069;28;20231;-78
2022/06/30 04:25:09;;;;;;;14.20;8.65;;;;;;;-145.69;100.00;70960.66;5056104;28;20214;-78
2022/06/30 04:27:36;;;;;;;15.00;8.70;;;;;;;-145.69;100.00;70952.72;5056388;28;20553;-78
2022/06/30 04:30:03;;;;;;;17.00;9.20;;;;;;;-145.69;100.00;70942.75;5056230;28;20205;-79
2022/06/30 04:32:39;;;;;;;14.18;9.23;;;;;;;-145.69;100.00;70942.75;5055979;28;20207;-79
2022/06/30 04:35:07;;;;;;;12.23;8.80;;;;;;;-145.69;100.00;70940.78;5055923;28;20199;-79
2022/06/30 04:37:34;;;;;;;16.80;9.48;;;;;;;-145.69;100.00;70932.81;5056104;28;20238;-79
2022/06/30 04:42:44;;;;;;;13.10;8.30;;;;;;;-145.69;100.00;70912.91;5056097;28;20310;-78
2022/06/30 04:45:11;;;;;;;14.00;8.18;;;;;;;-145.69;100.00;70897.00;5055807;28;20223;-78
2022/06/30 04:47:39;;;;;;;15.40;8.55;;;;;;;-145.69;100.00;70895.00;5055586;28;20238;-79
2022/06/30 04:50:07;;;;;;;14.13;8.85;;;;;;;-145.69;100.00;70897.00;5055923;28;20199;-78
2022/06/30 04:52:34;;;;;;;10.70;8.02;;;;;;;-145.69;100.00;70885.06;5055764;28;20203;-79
2022/06/30 04:55:01;;;;;;;11.90;8.57;;;;;;;-145.69;100.00;70881.09;5055722;28;20200;-78
2022/06/30 04:57:27;;;;;;;11.98;9.32;;;;;;;-145.69;100.00;70859.19;5054883;28;20803;-79
2022/06/30 04:59:54;;;;;;;13.57;8.60;;;;;;;-145.69;100.00;70839.31;5056103;28;20634;-79
2022/06/30 05:02:20;;;;;;;14.50;8.02;;;;;;;-145.69;100.00;70825.38;5055198;28;20712;-79
2022/06/30 05:04:48;;;;;;;12.60;7.88;;;;;;;-145.69;100.00;70799.50;5055181;28;20211;-78
2022/06/30 05:07:16;;;;;;;11.27;7.18;;;;;;;-145.69;100.00;70777.63;5055294;28;20199;-79
2022/06/30 05:09:43;;;;;;;12.60;7.07;;;;;;;-145.69;100.00;70769.66;5055446;28;20204;-79
2022/06/30 05:12:10;;;;;;;15.00;6.72;;;;;;;-145.69;100.00;70751.75;5055341;28;20206;-79
2022/06/30 05:14:36;;;;;;;10.05;6.28;;;;;;;-145.69;100.00;70737.84;5055226;28;20201;-79
2022/06/30 05:17:04;;;;;;;8.63;5.32;;;;;;;-145.69;100.00;70717.94;5055060;28;20658;-79
2022/06/30 05:19:30;;;;;;;7.90;5.40;;;;;;;-145.69;100.00;70682.13;5055056;28;20195;-79
2022/06/30 05:21:58;;;;;;;8.13;5.65;;;;;;;-145.69;100.00;70664.22;5055142;28;20290;-78
2022/06/30 05:27:09;;;;;;;8.38;5.05;;;;;;;-145.69;100.00;70640.34;5055174;28;20339;-79
2022/06/30 05:29:35;;;;;;;6.90;5.22;;;;;;;-145.69;100.00;70630.41;5055108;28;20214;-79
2022/06/30 05:32:02;;;;;;;6.32;5.22;;;;;;;-145.69;100.00;70616.47;5055036;28;20622;-79
2022/06/30 05:34:28;;;;;;;6.35;4.72;;;;;;;-145.69;100.00;70604.53;5054846;28;20215;-79
2022/06/30 05:36:55;;;;;;;8.05;5.40;;;;;;;-145.69;100.00;70584.66;5054905;28;20203;-79
2022/06/30 05:39:23;;;;;;;6.10;4.60;;;;;;;-145.69;100.00;70568.72;5054753;28;20207;-79
2022/06/30 05:41:49;;;;;;;9.32;5.85;;;;;;;-145.69;100.00;70546.84;5054740;28;20203;-79
2022/06/30 05:44:16;;;;;;;12.77;5.75;;;;;;;-145.69;100.00;70467.28;5055028;28;20223;-78
2022/06/30 05:46:43;;;;;;;7.78;4.63;;;;;;;-145.69;100.00;70351.88;5054814;28;20212;-79
2022/06/30 05:49:10;;;;;;;5.82;4.13;;;;;;;-145.69;100.00;70252.41;5054410;28;20657;-78
2022/06/30 05:51:37;;;;;;;8.68;3.60;;;;;;;-145.69;100.00;70145.00;5054759;28;20631;-78
2022/06/30 05:54:03;;;;;;;4.95;3.03;;;;;;;-145.69;100.00;70059.47;5054561;28;20294;-78
2022/06/30 05:56:31;;;;;;;5.32;2.33;;;;;;;-145.69;100.00;69979.91;5054313;28;20207;-78
2022/06/30 05:58:58;;;;;;;4.45;1.95;;;;;;;-145.69;95.71;69890.38;5054580;28;20650;-78
2022/06/30 06:01:24;;;;;;;3.97;2.13;;;;;;;-145.69;87.04;69806.84;5054246;28;20692;-78
2022/06/30 06:03:51;;;;;;;5.80;2.28;;;;;;;-145.69;86.19;69798.88;5054367;28;20231;-79
2022/06/30 06:06:17;;;;;;;5.45;2.47;;;;;;;-145.69;83.50;69802.88;5054340;28;20195;-78
2022/06/30 06:08:44;;;;;;;3.45;1.80;;;;;;;-145.69;78.67;69731.25;5053950;28;20440;-78
2022/06/30 06:11:10;;;;;;;4.45;1.88;;;;;;;-145.69;71.95;69635.78;5056434;28;20203;-78
2022/06/30 06:13:38;;;;;;;2.05;1.80;;;;;;;-145.69;67.72;69572.13;5054231;28;20558;-78
2022/06/30 06:16:05;;;;;;;4.45;1.95;;;;;;;-145.69;66.53;69556.22;5054236;28;20216;-78
2022/06/30 06:18:31;;;;;;;3.15;1.90;;;;;;;-145.69;67.87;69582.09;5054147;28;20203;-78
2022/06/30 06:20:58;;;;;;;5.75;1.92;;;;;;;-145.69;67.40;69592.03;5054466;28;20229;-78
2022/06/30 06:23:24;;;;;;;5.40;1.90;;;;;;;-145.69;65.40;69629.81;5053793;28;20227;-78
2022/06/30 06:25:51;;;;;;;5.65;2.03;;;;;;;-145.69;65.54;69657.66;5053816;28;20203;-78
2022/06/30 06:31:03;;;;;;;3.83;2.42;;;;;;;-145.69;68.18;69755.13;5053328;28;20672;-78
2022/06/30 06:33:30;;;;;;;2.97;1.70;;;;;;;-145.69;71.08;69731.25;5053896;28;20214;-79
2022/06/30 06:35:57;;;;;;;4.57;1.55;;;;;;;-145.69;67.57;69749.16;5053642;28;20195;-78
2022/06/30 06:38:23;;;;;;;4.82;1.85;;;;;;;-145.69;70.43;69814.78;5053682;28;20203;-78
2022/06/30 06:40:49;;;;;;;4.13;1.88;;;;;;;-145.69;71.76;69763.09;5053876;28;20206;-78
2022/06/30 06:43:16;;;;;;;5.75;1.90;;;;;;;-145.69;71.45;69806.84;5053355;28;20529;-78
2022/06/30 06:45:42;;;;;;;6.25;2.00;;;;;;;-145.69;73.35;69794.91;5053545;28;20211;-78
2022/06/30 06:48:10;;;;;;;4.53;2.20;;;;;;;-145.69;69.26;69818.78;5053474;28;20596;-78
2022/06/30 06:50:37;;;;;;;5.70;1.70;;;;;;;-145.69;72.99;69812.81;5053336;28;20195;-79
2022/06/30 06:53:03;;;;;;;4.80;1.73;;;;;;;-145.69;68.73;69705.41;5053286;28;20203;-78
2022/06/30 06:55:30;;;;;;;5.65;2.45;;;;;;;-145.69;63.12;69663.63;5053483;28;20196;-78
2022/06/30 06:57:56;;;;;;;2.95;1.80;;;;;;;-145.69;66.58;69721.31;5053499;28;20601;-78
2022/06/30 07:00:23;;;;;;;5.65;2.55;;;;;;;-145.69;67.89;69848.63;5053396;28;20199;-79
2022/06/30 07:02:50;;;;;;;3.75;2.20;;;;;;;-145.69;76.02;69826.72;5053245;28;20223;-78
2022/06/30 07:05:17;;;;;;;5.75;2.00;;;;;;;-145.69;71.00;69866.50;5053148;28;20199;-77
2022/06/30 07:07:44;;;;;;;6.28;2.15;;;;;;;-145.69;70.36;69870.50;5053060;28;20203;-78
2022/06/30 07:10:10;;;;;;;3.67;2.10;;;;;;;-145.69;73.65;69866.50;5053284;28;20199;-78
2022/06/30 07:12:37;;;;;;;4.78;2.20;;;;;;;-145.69;69.46;69886.41;5052945;28;20206;-79
2022/06/30 07:15:04;;;;;;;10.63;2.03;;;;;;;-145.69;71.18;69886.41;5053096;28;20558;-77
2022/06/30 07:17:35;;;;;;;6.25;2.13;;;;;;;-145.69;69.99;69902.31;5053108;28;20211;-78
2022/06/30 07:20:02;;;;;;;5.32;2.00;;;;;;;-145.69;70.67;69890.38;5052251;28;20439;-78
2022/06/30 07:22:29;;;;;;;4.57;2.20;;;;;;;-145.69;69.54;69846.63;5053045;28;20206;-78
2022/06/30 07:24:56;;;;;;;6.88;2.33;;;;;;;-145.69;66.93;69870.50;5053116;28;20203;-77
2022/06/30 07:27:22;;;;;;;7.30;2.65;;;;;;;-145.69;68.02;69882.44;5053146;28;20207;-78
2022/06/30 07:29:49;;;;;;;6.25;2.38;;;;;;;-145.69;67.60;69892.38;5052990;28;20203;-80
2022/06/30 07:32:15;;;;;;;6.03;2.53;;;;;;;-145.69;66.61;69886.41;5052869;28;20204;-77
2022/06/30 07:34:42;;;;;;;8.40;2.25;;;;;;;-145.69;66.62;69906.28;5052778;28;20215;-79
2022/06/30 07:37:08;;;;;;;3.70;1.88;;;;;;;-145.69;64.90;69888.41;5052927;28;20204;-80
2022/06/30 07:39:36;;;;;;;6.32;2.22;;;;;;;-145.69;67.48;69890.38;5052881;28;20199;-80
2022/06/30 07:42:03;;;;;;;5.85;2.20;;;;;;;-145.69;61.80;69882.44;5053011;28;20605;-79
2022/06/30 07:44:29;;;;;;;8.98;2.65;;;;;;;-145.69;63.19;69866.50;5056927;28;20594;-80
2022/06/30 07:46:56;;;;;;;11.63;2.53;;;;;;;-145.69;61.29;69886.41;5056752;28;20199;-80
2022/06/30 07:49:23;;;;;;;5.60;2.10;;;;;;;-145.69;65.18;69882.44;5056596;28;20235;-80
2022/06/30 07:51:50;;;;;;;5.53;2.10;;;;;;;-145.69;61.07;69864.53;5056907;28;20253;-81
2022/06/30 07:54:16;;;;;;;7.03;2.15;;;;;;;-145.69;60.39;69858.56;5056813;28;20523;-81
2022/06/30 07:56:44;;;;;;;5.30;2.88;;;;;;;-145.69;59.68;69838.66;5056831;28;20209;-80
2022/06/30 07:59:10;;;;;;;3.83;1.75;;;;;;;-145.69;56.18;69818.78;5056829;28;20199;-81
2022/06/30 08:01:37;;;;;;;3.30;1.60;;;;;;;-145.69;59.31;69818.78;5056486;28;20203;-80
2022/06/30 08:04:03;;;;;;;4.10;2.35;;;;;;;-145.69;62.61;69790.94;5056822;28;20230;-80
2022/06/30 08:06:30;;;;;;;8.85;2.20;;;;;;;-145.69;56.00;69794.91;5056673;28;20196;-79
2022/06/30 08:08:56;;;;;;;5.22;2.08;;;;;;;-145.69;58.49;69818.78;5056556;28;20199;-79
2022/06/30 08:11:23;;;;;;;3.70;1.83;;;;;;;-145.69;59.37;69826.72;5056491;28;20203;-80
2022/06/30 08:13:51;;;;;;;4.85;2.13;;;;;;;-145.69;57.88;69800.88;5056516;28;20230;-80
2022/06/30 08:16:18;;;;;;;5.90;2.28;;;;;;;-145.69;58.33;69788.94;5056237;28;20210;-80
2022/06/30 08:18:44;;;;;;;9.88;2.25;;;;;;;-145.69;60.99;69779.00;5056770;28;20221;-79
2022/06/30 08:21:11;;;;;;;7.30;2.30;;;;;;;-145.69;59.78;69810.81;5058234;28;20192;-81
2022/06/30 08:23:39;;;;;;;4.63;2.42;;;;;;;-145.69;62.44;69802.88;5056244;28;20233;-80
2022/06/30 08:26:06;;;;;;;7.20;2.45;;;;;;;-145.69;61.44;69804.84;5056238;28;20294;-80
2022/06/30 08:28:33;;;;;;;6.85;2.40;;;;;;;-145.69;58.86;69800.88;5055969;28;20257;-80
2022/06/30 08:31:02;;;;;;;6.03;2.40;;;;;;;-145.69;60.26;69759.09;5055091;28;20435;-80
2022/06/30 08:33:29;;;;;;;5.10;2.10;;;;;;;-145.69;56.41;69777.00;5056257;28;20195;-81
2022/06/30 08:35:56;;;;;;;5.32;1.95;;;;;;;-145.69;60.56;69773.03;5056036;28;20199;-81
2022/06/30 08:38:22;;;;;;;5.80;2.00;;;;;;;-145.69;55.27;69788.94;5056029;28;20210;-80
2022/06/30 08:43:35;;;;;;;3.22;1.80;;;;;;;-145.69;56.98;69743.19;5055938;28;20230;-80
2022/06/30 08:46:03;;;;;;;4.00;1.60;;;;;;;-145.69;49.24;69709.38;5055832;28;20204;-80
2022/06/30 08:48:30;;;;;;;6.82;1.60;;;;;;;-145.69;53.20;69701.41;5055836;28;20227;-79
2022/06/30 08:51:03;;;;;;;3.35;1.70;;;;;;;-145.69;48.69;69695.47;5055866;28;20207;-80
2022/06/30 08:53:32;;;;;;;3.38;1.67;;;;;;;-145.69;50.59;69681.53;5055463;28;20543;-80
2022/06/30 08:56:00;;;;;;;7.13;2.25;;;;;;;-145.69;57.02;69691.47;5055763;28;20532;-81
2022/06/30 08:58:27;;;;;;;10.18;2.60;;;;;;;-145.69;53.07;69699.44;5055664;28;20547;-81
2022/06/30 09:00:53;;;;;;;4.32;2.10;;;;;;;-145.69;55.23;69683.53;5055653;28;20208;-81
2022/06/30 09:03:21;;;;;;;3.47;1.77;;;;;;;-145.69;54.46;69719.31;5055605;28;20219;-80
2022/06/30 09:05:48;;;;;;;6.45;2.00;;;;;;;-145.69;53.95;69729.28;5055399;28;20654;-81
2022/06/30 09:08:15;;;;;;;5.47;2.35;;;;;;;-145.69;59.54;69691.47;5055207;28;20203;-80
2022/06/30 09:10:48;;;;;;;4.15;1.90;;;;;;;-145.69;54.49;69687.50;5055405;28;20200;-80
2022/06/30 09:13:14;;;;;;;3.60;2.15;;;;;;;-145.69;53.46;69689.50;5055374;28;20195;-80
2022/06/30 09:15:41;;;;;;;5.18;1.95;;;;;;;-145.69;60.06;69671.59;5055440;28;20203;-80
2022/06/30 09:18:08;;;;;;;4.18;2.40;;;;;;;-145.69;54.52;69657.66;5055085;28;20650;-80
2022/06/30 09:20:38;;;;;;;5.22;2.20;;;;;;;-145.69;56.97;69685.50;5055035;28;20200;-81
2022/06/30 09:23:21;;;;;;;5.22;2.10;;;;;;;-145.69;52.07;69679.53;5055619;28;20196;-80
2022/06/30 09:25:50;;;;;;;4.80;2.20;;;;;;;-145.69;53.65;69667.59;5055118;28;20199;-81
2022/06/30 09:28:36;;;;;;;5.05;2.50;;;;;;;-145.69;52.64;69647.72;5055164;28;20195;-81
2022/06/30 09:31:03;;;;;;;6.55;2.47;;;;;;;-145.69;52.17;69647.72;5054639;28;20211;-81
2022/06/30 09:33:35;;;;;;;5.07;2.20;;;;;;;-145.69;54.81;69639.75;5055269;28;20200;-82
2022/06/30 09:36:21;;;;;;;8.90;2.50;;;;;;;-145.69;53.72;69677.56;5054968;28;20199;-80
2022/06/30 09:38:59;;;;;;;5.32;2.45;;;;;;;-145.69;56.58;69655.69;5054930;28;20196;-80
2022/06/30 09:41:27;;;;;;;4.28;2.20;;;;;;;-145.69;55.94;69653.69;5054762;28;20195;-80
2022/06/30 09:43:54;;;;;;;6.07;2.50;;;;;;;-145.69;53.75;69621.88;5054622;28;20223;-81
2022/06/30 09:46:21;;;;;;;3.92;1.90;;;;;;;-145.69;54.63;69594.00;5054786;28;20206;-80
2022/06/30 09:48:48;;;;;;;6.22;1.90;;;;;;;-145.69;54.05;69586.06;5054551;28;20223;-80
2022/06/30 09:51:14;;;;;;;2.95;1.70;;;;;;;-145.69;50.97;69607.94;5054632;28;20570;-81
2022/06/30 09:53:42;;;;;;;9.18;2.53;;;;;;;-145.69;55.20;69576.13;5054617;28;20199;-80
2022/06/30 09:56:14;;;;;;;6.63;2.30;;;;;;;-145.69;53.07;69594.00;5054421;28;20212;-81
2022/06/30 09:58:42;;;;;;;7.97;2.50;;;;;;;-145.69;53.63;69572.13;5054605;28;20214;-81
2022/06/30 10:01:09;;;;;;;4.60;2.38;;;;;;;-145.69;51.39;69572.13;5054495;28;20214;-82
2022/06/30 10:03:44;;;;;;;6.65;2.45;;;;;;;-145.69;51.89;69564.19;5054271;28;20196;-81
2022/06/30 10:06:12;;;;;;;6.30;2.35;;;;;;;-145.69;50.51;69574.13;5053586;28;20199;-81
2022/06/30 10:08:39;;;;;;;3.20;1.90;;;;;;;-145.69;51.37;69601.97;5054148;28;20199;-81
2022/06/30 10:11:08;;;;;;;3.72;2.03;;;;;;;-145.69;53.65;69572.13;5054302;28;20650;-81
2022/06/30 10:13:36;;;;;;;6.68;2.17;;;;;;;-145.69;53.07;69574.13;5054158;28;20199;-82
2022/06/30 10:16:05;;;;;;;6.05;2.25;;;;;;;-145.69;52.76;69558.22;5052907;28;20436;-82
2022/06/30 10:18:36;;;;;;;7.53;2.38;;;;;;;-145.69;52.88;69568.16;5054072;28;20203;-82
2022/06/30 10:21:04;;;;;;;6.25;1.80;;;;;;;-145.69;55.90;69546.28;5054024;28;20767;-81
2022/06/30 10:23:33;;;;;;;8.27;2.53;;;;;;;-145.69;50.77;69546.28;5053800;28;20205;-80
2022/06/30 10:25:59;;;;;;;7.38;2.28;;;;;;;-145.69;56.78;69540.31;5056170;28;20217;-81
2022/06/30 10:28:28;;;;;;;7.22;1.98;;;;;;;-145.69;51.09;69536.34;5054000;28;20204;-81
2022/06/30 10:31:03;;;;;;;7.22;2.20;;;;;;;-145.69;54.18;69568.16;5053845;28;20249;-82
2022/06/30 10:33:38;;;;;;;3.40;1.80;;;;;;;-145.69;52.13;69568.16;5054002;28;20202;-81
2022/06/30 10:36:13;;;;;;;6.07;2.58;;;;;;;-145.69;51.30;69556.22;5054002;28;20203;-80
2022/06/30 10:38:45;;;;;;;5.43;2.17;;;;;;;-145.69;55.96;69548.28;5053818;28;20207;-81
2022/06/30 10:41:14;;;;;;;5.38;2.35;;;;;;;-145.69;50.42;69512.47;5053011;28;20790;-82
2022/06/30 10:44:15;;;;;;;4.32;2.20;;;;;;;-145.69;49.97;69492.59;5053732;28;20206;-81
2022/06/30 10:47:04;;;;;;;4.78;1.90;;;;;;;-145.69;44.93;69508.50;5053782;28;20204;-82
2022/06/30 10:49:33;;;;;;;5.80;1.90;;;;;;;-145.69;47.68;69504.50;5053273;28;20231;-81
2022/06/30 10:52:35;;;;;;;5.90;2.00;;;;;;;-145.69;48.90;69480.66;5053535;28;20242;-82
2022/06/30 10:55:07;;;;;;;2.85;1.90;;;;;;;-145.69;44.53;69496.56;5047395;28;20207;-82
2022/06/30 10:58:07;;;;;;;6.10;1.92;;;;;;;-145.69;47.33;69468.72;5053566;28;20623;-81
2022/06/30 11:00:46;;;;;;;4.88;1.90;;;;;;;-145.69;48.26;69468.72;5053550;28;20195;-80
2022/06/30 11:03:42;;;;;;;4.50;2.10;;;;;;;-145.69;49.43;69470.72;5053628;28;20210;-82
2022/06/30 11:06:10;;;;;;;4.38;2.20;;;;;;;-145.69;46.93;69462.75;5052945;28;20207;-79
2022/06/30 11:08:50;;;;;;;3.17;1.90;;;;;;;-145.69;45.11;69436.91;5053148;28;20199;-81
2022/06/30 11:11:46;;;;;;;4.63;2.35;;;;;;;-145.69;46.03;69430.94;5052849;28;20252;-82
2022/06/30 11:14:26;;;;;;;3.92;2.10;;;;;;;-145.69;46.67;69409.06;5011327;28;20208;-81
2022/06/30 11:16:55;;;;;;;2.38;1.90;;;;;;;-145.69;51.73;69401.09;5046819;28;20203;-82
2022/06/30 11:19:24;;;;;;;6.40;2.33;;;;;;;-145.69;48.51;69385.19;5052920;28;20207;-81
2022/06/30 11:21:54;;;;;;;5.70;2.40;;;;;;;-145.69;45.99;69397.13;5053085;28;20535;-82
2022/06/30 11:24:23;;;;;;;6.03;2.10;;;;;;;-145.69;44.83;69496.56;5053649;28;20231;-85
2022/06/30 11:29:35;;;;;;;6.53;2.10;;;;;;;-145.69;49.66;69375.25;5053092;28;20341;-83
2022/06/30 11:32:03;;;;;;;3.47;1.90;;;;;;;-145.69;45.16;69361.31;5052848;28;20298;-81
2022/06/30 11:34:31;;;;;;;6.32;2.40;;;;;;;-145.69;44.49;69341.44;5052966;28;20287;-81